Terminal Aerodrome Forecast
Issued by NWS

Home | Current Version | Previous Version | Text Only | Print | Product List | Glossary On
Versions: 1 2 3 4 5 6 7 8 9 10 11 12 13 14
000
FTUS43 KIWX 250500
TAFSBN
TAF
KSBN 250532Z 2506/2606 13013KT P6SM OVC080
      TEMPO 2506/2509 P6SM -SHRA OVC040
     FM251200 30012KT P6SM OVC040
     FM251500 32018G27KT P6SM SCT250
     FM260000 25006KT P6SM SKC=

USA.gov is the U.S. government's official web portal to all federal, state and local government web resources and services.